createdAt,value
2023-04-27T00:00:41.466Z,38.22
2023-04-27T00:03:08.520Z,34.89
2023-04-27T00:05:35.972Z,33.60
2023-04-27T00:08:02.899Z,32.79
2023-04-27T00:10:29.690Z,32.42
2023-04-27T00:12:56.474Z,32.26
2023-04-27T00:15:23.247Z,32.22
2023-04-27T00:17:50.136Z,32.12
2023-04-27T00:20:16.902Z,31.85
2023-04-27T00:22:43.714Z,31.82
2023-04-27T00:25:10.609Z,31.73
2023-04-27T00:27:37.354Z,31.73
2023-04-27T00:30:04.312Z,31.60
2023-04-27T00:32:31.120Z,31.32
2023-04-27T00:34:57.936Z,31.48
2023-04-27T00:37:24.792Z,31.47
2023-04-27T00:39:51.554Z,31.52
2023-04-27T00:42:19.596Z,31.46
2023-04-27T00:44:46.388Z,31.33
2023-04-27T00:47:13.144Z,31.35
2023-04-27T00:49:39.885Z,31.34
2023-04-27T00:52:07.362Z,31.11
2023-04-27T00:54:34.111Z,30.76
2023-04-27T00:57:00.840Z,31.11
2023-04-27T00:59:27.582Z,31.84
2023-04-27T01:01:54.959Z,34.96
2023-04-27T01:04:21.828Z,35.69
2023-04-27T01:06:48.840Z,35.90
2023-04-27T01:09:19.035Z,33.97
2023-04-27T01:11:45.790Z,32.88
2023-04-27T01:14:12.598Z,32.50
2023-04-27T01:16:39.480Z,32.49
2023-04-27T01:19:06.288Z,32.19
2023-04-27T01:21:33.101Z,31.97
2023-04-27T01:23:59.850Z,31.58
2023-04-27T01:26:26.822Z,31.87
2023-04-27T01:28:53.608Z,31.44
2023-04-27T01:31:20.518Z,31.52
2023-04-27T01:33:47.326Z,31.41
2023-04-27T01:36:14.142Z,31.61
2023-04-27T01:38:41.091Z,31.27
2023-04-27T01:41:09.185Z,31.00
2023-04-27T01:43:37.030Z,31.10
2023-04-27T01:46:03.811Z,31.42
2023-04-27T01:48:30.570Z,31.34
2023-04-27T01:50:57.339Z,31.33
2023-04-27T01:53:24.092Z,30.99
2023-04-27T01:55:51.086Z,31.03
2023-04-27T01:58:17.843Z,31.97
2023-04-27T02:00:44.608Z,35.24
2023-04-27T02:03:11.557Z,35.91
2023-04-27T02:05:38.431Z,36.10
2023-04-27T02:08:05.170Z,33.76
2023-04-27T02:10:31.950Z,32.89
2023-04-27T02:12:58.730Z,32.46
2023-04-27T02:15:25.617Z,32.33
2023-04-27T02:17:52.415Z,32.12
2023-04-27T02:20:19.208Z,31.85
2023-04-27T02:22:45.949Z,31.59
2023-04-27T02:25:12.703Z,31.72
2023-04-27T02:27:39.544Z,31.41
2023-04-27T02:30:07.078Z,31.42
2023-04-27T02:32:34.255Z,31.42
2023-04-27T02:35:01.342Z,31.21
2023-04-27T02:37:28.099Z,31.18
2023-04-27T02:39:54.855Z,31.24
2023-04-27T02:42:21.624Z,31.26
2023-04-27T02:44:48.413Z,31.11
2023-04-27T02:47:15.161Z,30.93
2023-04-27T02:49:42.083Z,31.13
2023-04-27T02:52:08.941Z,30.93
2023-04-27T02:54:35.827Z,30.85
2023-04-27T02:57:02.593Z,30.90
2023-04-27T02:59:29.333Z,33.65
2023-04-27T03:01:56.106Z,35.34
2023-04-27T03:04:23.584Z,36.90
2023-04-27T03:06:50.874Z,34.53
2023-04-27T03:09:17.639Z,33.21
2023-04-27T03:11:44.405Z,32.69
2023-04-27T03:14:12.648Z,31.88
2023-04-27T03:16:39.529Z,31.87
2023-04-27T03:19:07.125Z,31.58
2023-04-27T03:21:33.907Z,31.79
2023-04-27T03:24:00.901Z,31.46
2023-04-27T03:26:27.660Z,31.59
2023-04-27T03:28:54.419Z,31.65
2023-04-27T03:31:21.594Z,31.51
2023-04-27T03:33:48.381Z,31.36
2023-04-27T03:36:15.288Z,31.43
2023-04-27T03:38:42.035Z,30.94
2023-04-27T03:41:08.825Z,31.23
2023-04-27T03:43:36.130Z,31.18
2023-04-27T03:46:02.961Z,31.04
2023-04-27T03:48:29.851Z,31.11
2023-04-27T03:50:56.629Z,31.02
2023-04-27T03:53:23.397Z,30.85
2023-04-27T03:55:50.215Z,30.77
2023-04-27T03:58:17.788Z,30.97
2023-04-27T04:00:44.606Z,30.81
2023-04-27T04:03:11.587Z,30.97
2023-04-27T04:05:38.530Z,31.24
2023-04-27T04:08:05.268Z,34.34
2023-04-27T04:10:32.066Z,34.99
2023-04-27T04:12:58.925Z,35.55
2023-04-27T04:15:25.915Z,33.58
2023-04-27T04:17:52.829Z,32.46
2023-04-27T04:20:19.706Z,32.41
2023-04-27T04:22:46.515Z,32.29
2023-04-27T04:25:13.876Z,31.80
2023-04-27T04:27:40.900Z,31.67
2023-04-27T04:30:07.707Z,31.69
2023-04-27T04:32:37.541Z,31.51
2023-04-27T04:35:05.172Z,31.46
2023-04-27T04:37:31.904Z,31.38
2023-04-27T04:39:58.661Z,31.12
2023-04-27T04:42:25.406Z,31.11
2023-04-27T04:44:52.390Z,30.98
2023-04-27T04:47:19.193Z,31.04
2023-04-27T04:49:46.138Z,31.23
2023-04-27T04:52:12.900Z,31.03
2023-04-27T04:54:39.853Z,32.47
2023-04-27T04:57:07.551Z,34.41
2023-04-27T04:59:34.949Z,35.90
2023-04-27T05:02:01.884Z,35.74
2023-04-27T05:04:28.827Z,33.99
2023-04-27T05:06:55.878Z,32.95
2023-04-27T05:09:22.673Z,32.66
2023-04-27T05:11:49.405Z,32.18
2023-04-27T05:14:16.190Z,32.01
2023-04-27T05:16:43.058Z,31.68
2023-04-27T05:19:09.906Z,31.94
2023-04-27T05:21:36.710Z,31.71
2023-04-27T05:24:03.986Z,31.42
2023-04-27T05:26:30.969Z,31.40
2023-04-27T05:28:57.732Z,31.23
2023-04-27T05:31:24.616Z,31.56
2023-04-27T05:33:51.418Z,31.50
2023-04-27T05:36:18.197Z,31.12
2023-04-27T05:38:45.010Z,31.18
2023-04-27T05:41:11.762Z,31.29
2023-04-27T05:43:38.704Z,31.17
2023-04-27T05:46:05.616Z,30.83
2023-04-27T05:48:32.446Z,30.63
2023-04-27T05:50:59.251Z,33.43
2023-04-27T05:53:26.246Z,34.37
2023-04-27T05:55:53.329Z,37.44
2023-04-27T05:58:20.128Z,34.89
2023-04-27T06:00:46.948Z,33.29
2023-04-27T06:03:13.964Z,32.49
2023-04-27T06:05:40.848Z,32.62
2023-04-27T06:08:07.778Z,32.41
2023-04-27T06:10:34.525Z,32.15
2023-04-27T06:13:01.330Z,31.88
2023-04-27T06:15:28.162Z,31.74
2023-04-27T06:17:55.069Z,31.59
2023-04-27T06:20:21.952Z,31.55
2023-04-27T06:22:48.823Z,31.43
2023-04-27T06:25:15.586Z,31.42
2023-04-27T06:27:42.438Z,31.16
2023-04-27T06:30:09.196Z,31.11
2023-04-27T06:32:36.035Z,31.32
2023-04-27T06:35:02.823Z,30.91
2023-04-27T06:37:30.023Z,30.86
2023-04-27T06:39:56.814Z,31.21
2023-04-27T06:42:23.658Z,31.20
2023-04-27T06:44:50.496Z,32.02
2023-04-27T06:47:17.312Z,33.95
2023-04-27T06:49:44.093Z,34.94
2023-04-27T06:52:11.121Z,36.09
2023-04-27T06:54:37.947Z,34.08
2023-04-27T06:57:04.703Z,33.10
2023-04-27T06:59:31.494Z,32.63
2023-04-27T07:01:58.404Z,32.21
2023-04-27T07:04:25.510Z,31.88
2023-04-27T07:06:52.359Z,31.81
2023-04-27T07:09:26.952Z,31.81
2023-04-27T07:11:54.436Z,31.48
2023-04-27T07:14:21.421Z,31.59
2023-04-27T07:16:48.242Z,31.59
2023-04-27T07:19:15.225Z,31.55
2023-04-27T07:21:42.489Z,31.59
2023-04-27T07:24:09.240Z,31.28
2023-04-27T07:26:36.857Z,31.36
2023-04-27T07:29:11.235Z,31.20
2023-04-27T07:31:46.455Z,31.27
2023-04-27T07:34:13.351Z,31.17
2023-04-27T07:36:40.211Z,32.27
2023-04-27T07:39:07.992Z,34.35
2023-04-27T07:41:35.419Z,34.72
2023-04-27T07:44:02.499Z,36.44
2023-04-27T07:46:31.581Z,34.35
2023-04-27T07:48:59.702Z,33.43
2023-04-27T07:51:28.429Z,32.65
2023-04-27T07:53:55.581Z,32.20
2023-04-27T07:56:22.363Z,32.21
2023-04-27T07:58:49.109Z,32.09
2023-04-27T08:01:16.903Z,31.86
2023-04-27T08:03:44.555Z,31.62
2023-04-27T08:06:11.616Z,31.61
2023-04-27T08:08:38.933Z,31.58
2023-04-27T08:11:05.792Z,31.66
2023-04-27T08:13:32.561Z,31.24
2023-04-27T08:15:59.378Z,31.41
2023-04-27T08:18:26.143Z,31.50
2023-04-27T08:20:52.907Z,31.17
2023-04-27T08:23:19.704Z,31.17
2023-04-27T08:25:46.458Z,31.46
2023-04-27T08:28:13.209Z,31.53
2023-04-27T08:30:39.991Z,34.01
2023-04-27T08:33:06.761Z,34.35
2023-04-27T08:35:33.532Z,37.40
2023-04-27T08:38:00.512Z,35.00
2023-04-27T08:40:27.322Z,33.99
2023-04-27T08:42:54.154Z,33.08
2023-04-27T08:45:20.954Z,32.90
2023-04-27T08:47:47.795Z,32.31
2023-04-27T08:50:14.567Z,32.30
2023-04-27T08:52:41.398Z,32.22
2023-04-27T08:55:08.443Z,32.05
2023-04-27T08:57:35.648Z,31.81
2023-04-27T09:00:11.422Z,31.78
2023-04-27T09:02:38.332Z,31.97
2023-04-27T09:05:05.429Z,31.60
2023-04-27T09:07:32.509Z,31.53
2023-04-27T09:09:59.263Z,31.37
2023-04-27T09:12:26.077Z,31.37
2023-04-27T09:14:52.850Z,31.55
2023-04-27T09:17:19.584Z,31.39
2023-04-27T09:19:46.338Z,31.73
2023-04-27T09:22:14.726Z,34.10
2023-04-27T09:24:41.477Z,34.46
2023-04-27T09:27:08.794Z,36.56
2023-04-27T09:29:35.832Z,35.32
2023-04-27T09:32:03.781Z,34.00
2023-04-27T09:34:30.797Z,33.22
2023-04-27T09:36:57.664Z,33.01
2023-04-27T09:39:24.406Z,32.59
2023-04-27T09:41:51.171Z,32.32
2023-04-27T09:44:18.056Z,32.09
2023-04-27T09:46:45.516Z,32.00
2023-04-27T09:49:12.454Z,32.14
2023-04-27T09:51:39.443Z,31.96
2023-04-27T09:54:06.309Z,31.98
2023-04-27T09:56:33.124Z,31.60
2023-04-27T09:58:59.992Z,31.88
2023-04-27T10:01:26.789Z,31.46
2023-04-27T10:03:53.702Z,31.82
2023-04-27T10:06:20.646Z,31.52
2023-04-27T10:08:47.414Z,31.56
2023-04-27T10:11:15.368Z,34.38
2023-04-27T10:13:42.147Z,34.49
2023-04-27T10:16:08.905Z,36.94
2023-04-27T10:18:35.648Z,35.33
2023-04-27T10:21:02.423Z,33.98
2023-04-27T10:23:29.365Z,33.45
2023-04-27T10:25:57.118Z,33.02
2023-04-27T10:28:24.004Z,32.64
2023-04-27T10:30:51.734Z,32.38
2023-04-27T10:33:18.547Z,32.28
2023-04-27T10:35:45.804Z,32.32
2023-04-27T10:38:12.588Z,31.93
2023-04-27T10:40:39.464Z,32.25
2023-04-27T10:43:06.469Z,32.18
2023-04-27T10:45:33.228Z,32.20
2023-04-27T10:48:00.062Z,32.03
2023-04-27T10:50:27.015Z,31.64
2023-04-27T10:52:53.857Z,31.96
2023-04-27T10:55:20.795Z,31.57
2023-04-27T10:57:48.047Z,31.52
2023-04-27T11:00:16.460Z,33.73
2023-04-27T11:02:43.452Z,34.84
2023-04-27T11:05:10.438Z,36.50
2023-04-27T11:07:37.273Z,35.67
2023-04-27T11:10:04.254Z,34.13
2023-04-27T11:12:31.086Z,33.39
2023-04-27T11:14:58.306Z,33.13
2023-04-27T11:17:25.458Z,32.93
2023-04-27T11:19:52.255Z,32.61
2023-04-27T11:22:19.036Z,32.49
2023-04-27T11:24:45.824Z,32.22
2023-04-27T11:27:12.992Z,32.32
2023-04-27T11:29:39.969Z,32.17
2023-04-27T11:32:07.030Z,32.10
2023-04-27T11:34:39.026Z,32.12
2023-04-27T11:39:36.468Z,31.89
2023-04-27T11:42:03.681Z,31.88
2023-04-27T11:44:30.519Z,31.75
2023-04-27T11:47:10.502Z,35.74
2023-04-27T11:49:37.546Z,37.27
2023-04-27T11:52:04.314Z,37.02
2023-04-27T11:54:31.232Z,34.85
2023-04-27T11:56:57.965Z,33.65
2023-04-27T11:59:25.544Z,33.27
2023-04-27T12:01:52.388Z,32.93
2023-04-27T12:04:19.634Z,32.70
2023-04-27T12:06:46.905Z,32.48
2023-04-27T12:09:13.700Z,32.47
2023-04-27T12:11:40.998Z,32.31
2023-04-27T12:14:07.954Z,32.31
2023-04-27T12:16:34.765Z,32.19
2023-04-27T12:19:01.836Z,32.20
2023-04-27T12:21:28.785Z,31.88
2023-04-27T12:23:55.726Z,31.74
2023-04-27T12:26:22.486Z,31.94
2023-04-27T12:28:49.260Z,31.94
2023-04-27T12:31:26.107Z,33.06
2023-04-27T12:33:54.376Z,35.06
2023-04-27T12:36:21.225Z,35.64
2023-04-27T12:38:48.121Z,36.47
2023-04-27T12:41:14.946Z,34.59
2023-04-27T12:43:43.426Z,33.56
2023-04-27T12:46:10.379Z,33.27
2023-04-27T12:48:37.187Z,33.15
2023-04-27T12:51:03.955Z,32.81
2023-04-27T12:53:30.747Z,32.75
2023-04-27T12:55:57.533Z,32.49
2023-04-27T12:58:24.285Z,32.30
2023-04-27T13:00:51.043Z,32.27
2023-04-27T13:03:18.025Z,32.24
2023-04-27T13:05:45.505Z,32.19
2023-04-27T13:08:12.307Z,32.05
2023-04-27T13:10:40.406Z,32.12
2023-04-27T13:13:07.704Z,32.00
2023-04-27T13:15:34.482Z,33.05
2023-04-27T13:18:05.080Z,34.64
2023-04-27T13:20:31.882Z,35.26
2023-04-27T13:22:58.638Z,36.99
2023-04-27T13:25:25.405Z,35.03
2023-04-27T13:27:52.206Z,33.68
2023-04-27T13:30:18.981Z,33.39
2023-04-27T13:32:45.920Z,33.18
2023-04-27T13:35:12.884Z,32.91
2023-04-27T13:37:42.080Z,32.84
2023-04-27T13:40:10.825Z,32.51
2023-04-27T13:42:37.613Z,32.40
2023-04-27T13:45:04.927Z,32.53
2023-04-27T13:47:37.085Z,32.14
2023-04-27T13:50:04.235Z,32.47
2023-04-27T13:52:31.092Z,32.37
2023-04-27T13:54:57.892Z,32.12
2023-04-27T13:57:24.655Z,31.98
2023-04-27T13:59:51.479Z,32.22
2023-04-27T14:02:18.316Z,34.64
2023-04-27T14:04:45.131Z,35.24
2023-04-27T14:07:12.162Z,37.55
2023-04-27T14:09:38.996Z,36.02
2023-04-27T14:12:05.820Z,34.55
2023-04-27T14:14:32.661Z,33.72
2023-04-27T14:16:59.492Z,33.38
2023-04-27T14:19:27.281Z,33.04
2023-04-27T14:21:55.366Z,33.15
2023-04-27T14:24:22.129Z,32.73
2023-04-27T14:26:49.425Z,32.60
2023-04-27T14:29:16.482Z,32.52
2023-04-27T14:31:43.449Z,32.30
2023-04-27T14:34:10.796Z,32.56
2023-04-27T14:36:37.619Z,32.33
2023-04-27T14:39:05.555Z,32.36
2023-04-27T14:41:32.344Z,32.16
2023-04-27T14:43:59.286Z,32.30
2023-04-27T14:46:26.110Z,31.88
2023-04-27T14:48:52.916Z,34.77
2023-04-27T14:51:19.756Z,35.02
2023-04-27T14:53:46.531Z,37.87
2023-04-27T14:56:13.303Z,36.24
2023-04-27T14:58:40.776Z,34.52
2023-04-27T15:01:07.592Z,33.70
2023-04-27T15:03:34.691Z,33.39
2023-04-27T15:06:01.780Z,33.25
2023-04-27T15:08:29.404Z,32.84
2023-04-27T15:11:00.551Z,32.57
2023-04-27T15:13:27.494Z,32.81
2023-04-27T15:15:54.695Z,32.52
2023-04-27T15:18:21.573Z,32.59
2023-04-27T15:20:48.534Z,32.23
2023-04-27T15:23:18.066Z,32.40
2023-04-27T15:25:44.798Z,32.22
2023-04-27T15:28:11.583Z,31.99
2023-04-27T15:30:38.344Z,31.91
2023-04-27T15:33:05.290Z,32.65
2023-04-27T15:35:32.521Z,34.57
2023-04-27T15:37:59.383Z,34.94
2023-04-27T15:40:26.123Z,37.47
2023-04-27T15:42:52.901Z,35.11
2023-04-27T15:45:19.673Z,34.38
2023-04-27T15:47:46.694Z,33.67
2023-04-27T15:50:13.542Z,33.32
2023-04-27T15:52:40.292Z,32.88
2023-04-27T15:55:08.420Z,32.81
2023-04-27T15:57:35.514Z,32.92
2023-04-27T16:00:02.275Z,32.63
2023-04-27T16:02:29.085Z,32.59
2023-04-27T16:04:56.431Z,32.76
2023-04-27T16:07:23.276Z,32.52
2023-04-27T16:09:50.076Z,32.53
2023-04-27T16:12:16.847Z,31.94
2023-04-27T16:14:43.720Z,32.29
2023-04-27T16:17:10.642Z,31.94
2023-04-27T16:19:37.413Z,35.74
2023-04-27T16:22:04.176Z,36.85
2023-04-27T16:24:31.303Z,36.42
2023-04-27T16:26:58.102Z,34.49
2023-04-27T16:29:24.866Z,33.70
2023-04-27T16:31:51.642Z,33.42
2023-04-27T16:34:18.498Z,33.19
2023-04-27T16:36:47.375Z,32.90
2023-04-27T16:39:14.458Z,32.85
2023-04-27T16:41:41.470Z,32.85
2023-04-27T16:44:08.223Z,32.44
2023-04-27T16:46:35.103Z,32.67
2023-04-27T16:49:02.089Z,32.47
2023-04-27T16:51:28.914Z,32.09
2023-04-27T16:53:55.676Z,32.32
2023-04-27T16:56:22.431Z,32.21
2023-04-27T16:58:49.181Z,33.52
2023-04-27T17:01:15.986Z,37.23
2023-04-27T17:03:42.979Z,37.91
2023-04-27T17:06:09.858Z,35.16
2023-04-27T17:08:36.623Z,34.14
2023-04-27T17:11:03.382Z,33.09
2023-04-27T17:13:31.599Z,33.25
2023-04-27T17:15:58.547Z,32.91
2023-04-27T17:18:25.652Z,32.88
2023-04-27T17:20:53.116Z,32.69
2023-04-27T17:23:20.021Z,32.44
2023-04-27T17:25:46.918Z,32.38
2023-04-27T17:28:13.660Z,32.56
2023-04-27T17:30:41.757Z,32.41
2023-04-27T17:33:09.846Z,32.34
2023-04-27T17:35:36.651Z,32.47
2023-04-27T17:38:03.481Z,32.19
2023-04-27T17:40:30.383Z,34.44
2023-04-27T17:42:57.752Z,34.79
2023-04-27T17:45:26.330Z,37.47
2023-04-27T17:47:53.145Z,36.16
2023-04-27T17:50:19.880Z,34.76
2023-04-27T17:52:49.347Z,34.05
2023-04-27T17:55:16.423Z,33.52
2023-04-27T17:57:43.245Z,33.21
2023-04-27T18:00:13.073Z,33.06
2023-04-27T18:02:40.177Z,32.95
2023-04-27T18:05:07.025Z,32.90
2023-04-27T18:07:33.784Z,33.01
2023-04-27T18:10:00.818Z,32.48
2023-04-27T18:12:27.603Z,32.27
2023-04-27T18:14:54.403Z,32.15
2023-04-27T18:17:21.442Z,32.52
2023-04-27T18:19:55.292Z,32.04
2023-04-27T18:22:27.959Z,32.23
2023-04-27T18:24:54.729Z,31.96
2023-04-27T18:27:21.476Z,34.64
2023-04-27T18:29:48.287Z,35.43
2023-04-27T18:32:15.960Z,39.22
2023-04-27T18:34:43.435Z,36.65
2023-04-27T18:37:10.448Z,34.79
2023-04-27T18:39:37.202Z,33.92
2023-04-27T18:42:03.975Z,33.62
2023-04-27T18:44:30.885Z,33.34
2023-04-27T18:46:57.631Z,33.08
2023-04-27T18:49:24.412Z,32.67
2023-04-27T18:51:51.247Z,32.90
2023-04-27T18:54:17.977Z,32.52
2023-04-27T18:56:44.750Z,32.84
2023-04-27T18:59:11.530Z,32.48
2023-04-27T19:01:39.716Z,32.35
2023-04-27T19:04:07.100Z,32.37
2023-04-27T19:06:34.046Z,32.19
2023-04-27T19:09:00.834Z,32.32
2023-04-27T19:11:28.647Z,32.09
2023-04-27T19:13:55.410Z,32.28
2023-04-27T19:16:22.193Z,32.32
2023-04-27T19:18:49.035Z,31.89
2023-04-27T19:21:15.945Z,34.89
2023-04-27T19:23:44.951Z,35.60
2023-04-27T19:26:13.914Z,39.63
2023-04-27T19:28:41.191Z,35.95
2023-04-27T19:31:08.257Z,34.57
2023-04-27T19:33:35.166Z,34.00
2023-04-27T19:36:01.920Z,33.92
2023-04-27T19:38:29.380Z,33.42
2023-04-27T19:40:56.128Z,33.12
2023-04-27T19:43:22.942Z,33.02
2023-04-27T19:45:50.850Z,32.65
2023-04-27T19:48:17.686Z,32.81
2023-04-27T19:50:44.475Z,32.44
2023-04-27T19:53:11.215Z,32.37
2023-04-27T19:55:39.003Z,32.44
2023-04-27T19:58:05.918Z,32.32
2023-04-27T20:00:33.204Z,32.25
2023-04-27T20:03:00.089Z,32.25
2023-04-27T20:05:27.151Z,32.11
2023-04-27T20:07:54.011Z,32.02
2023-04-27T20:10:21.309Z,32.48
2023-04-27T20:12:56.250Z,34.98
2023-04-27T20:15:23.749Z,36.14
2023-04-27T20:17:50.572Z,38.44
2023-04-27T20:20:18.173Z,35.41
2023-04-27T20:22:45.404Z,34.37
2023-04-27T20:25:13.944Z,33.84
2023-04-27T20:27:40.862Z,33.42
2023-04-27T20:30:08.101Z,33.19
2023-04-27T20:32:35.066Z,33.04
2023-04-27T20:35:02.452Z,32.90
2023-04-27T20:37:29.348Z,32.65
2023-04-27T20:39:56.139Z,32.43
2023-04-27T20:42:22.880Z,32.47
2023-04-27T20:44:50.370Z,32.51
2023-04-27T20:47:17.142Z,32.45
2023-04-27T20:49:43.987Z,32.07
2023-04-27T20:52:10.992Z,32.34
2023-04-27T20:54:37.852Z,32.04
2023-04-27T20:57:08.443Z,31.92
2023-04-27T20:59:35.240Z,31.81
2023-04-27T21:02:02.077Z,31.90
2023-04-27T21:04:28.920Z,32.02
2023-04-27T21:06:55.791Z,35.64
2023-04-27T21:09:22.623Z,35.86
2023-04-27T21:11:49.390Z,39.09
2023-04-27T21:14:16.317Z,35.56
2023-04-27T21:16:43.274Z,34.50
2023-04-27T21:19:12.887Z,33.57
2023-04-27T21:21:39.798Z,33.43
2023-04-27T21:24:19.287Z,33.00
2023-04-27T21:26:46.275Z,32.98
2023-04-27T21:29:13.172Z,33.04
2023-04-27T21:31:40.157Z,32.56
2023-04-27T21:34:06.968Z,32.64
2023-04-27T21:36:33.817Z,32.51
2023-04-27T21:39:00.561Z,32.41
2023-04-27T21:41:27.364Z,32.29
2023-04-27T21:43:54.195Z,32.35
2023-04-27T21:46:21.442Z,32.12
2023-04-27T21:48:48.226Z,32.22
2023-04-27T21:51:14.991Z,31.93
2023-04-27T21:53:41.775Z,32.11
2023-04-27T21:56:08.514Z,31.86
2023-04-27T21:58:35.425Z,33.93
2023-04-27T22:01:02.231Z,35.32
2023-04-27T22:03:29.123Z,38.89
2023-04-27T22:05:57.432Z,36.23
2023-04-27T22:08:24.325Z,34.21
2023-04-27T22:10:51.082Z,33.55
2023-04-27T22:13:19.377Z,33.35
2023-04-27T22:15:46.694Z,33.09
2023-04-27T22:18:14.571Z,32.71
2023-04-27T22:20:41.582Z,32.65
2023-04-27T22:23:09.207Z,32.59
2023-04-27T22:25:36.039Z,32.48
2023-04-27T22:28:02.838Z,32.58
2023-04-27T22:30:29.598Z,32.49
2023-04-27T22:32:56.652Z,32.33
2023-04-27T22:35:27.131Z,32.07
2023-04-27T22:37:54.167Z,32.01
2023-04-27T22:40:21.014Z,32.14
2023-04-27T22:42:47.823Z,31.77
2023-04-27T22:45:14.570Z,32.20
2023-04-27T22:47:41.506Z,31.87
2023-04-27T22:50:08.483Z,32.83
2023-04-27T22:52:37.069Z,35.13
2023-04-27T22:55:04.176Z,36.21
2023-04-27T22:57:30.953Z,37.08
2023-04-27T22:59:57.754Z,34.61
2023-04-27T23:02:24.633Z,33.81
2023-04-27T23:04:51.532Z,33.36
2023-04-27T23:07:18.357Z,33.13
2023-04-27T23:09:45.605Z,32.98
2023-04-27T23:12:12.439Z,32.99
2023-04-27T23:14:41.616Z,32.46
2023-04-27T23:17:08.431Z,32.44
2023-04-27T23:19:35.256Z,32.44
2023-04-27T23:22:01.982Z,32.33
2023-04-27T23:24:28.730Z,32.49
2023-04-27T23:26:55.493Z,32.23
2023-04-27T23:29:22.277Z,31.91
2023-04-27T23:31:49.044Z,32.20
2023-04-27T23:34:16.197Z,31.84
2023-04-27T23:36:43.210Z,32.09
2023-04-27T23:39:09.982Z,32.12
2023-04-27T23:41:37.117Z,31.85
2023-04-27T23:44:03.893Z,31.85
2023-04-27T23:46:30.645Z,34.34
2023-04-27T23:48:57.530Z,35.38
2023-04-27T23:51:24.406Z,39.48
2023-04-27T23:53:51.135Z,35.55
2023-04-27T23:56:18.025Z,34.17
2023-04-27T23:58:44.809Z,33.61
